sensor_id;sensor_type;location;lat;lon;timestamp;temperature;humidity
5415;DHT22;2730;51.512;7.504;2023-09-12T00:00:46;21.30;99.90
5415;DHT22;2730;51.512;7.504;2023-09-12T00:03:13;21.20;99.90
5415;DHT22;2730;51.512;7.504;2023-09-12T00:05:40;21.20;1.00
5415;DHT22;2730;51.512;7.504;2023-09-12T00:08:06;21.20;1.00
5415;DHT22;2730;51.512;7.504;2023-09-12T00:10:33;21.10;99.90
5415;DHT22;2730;51.512;7.504;2023-09-12T00:13:00;21.00;1.00
5415;DHT22;2730;51.512;7.504;2023-09-12T00:15:28;20.90;99.90
5415;DHT22;2730;51.512;7.504;2023-09-12T00:17:56;20.90;99.90
5415;DHT22;2730;51.512;7.504;2023-09-12T00:20:23;20.90;1.00
5415;DHT22;2730;51.512;7.504;2023-09-12T00:22:50;20.90;99.90
5415;DHT22;2730;51.512;7.504;2023-09-12T00:25:18;20.90;99.90
5415;DHT22;2730;51.512;7.504;2023-09-12T00:27:45;20.90;99.90
5415;DHT22;2730;51.512;7.504;2023-09-12T00:30:13;20.90;99.90
5415;DHT22;2730;51.512;7.504;2023-09-12T00:32:40;20.90;94.60
5415;DHT22;2730;51.512;7.504;2023-09-12T00:35:09;20.80;99.90
5415;DHT22;2730;51.512;7.504;2023-09-12T00:37:35;20.80;99.90
5415;DHT22;2730;51.512;7.504;2023-09-12T00:40:03;20.70;94.10
5415;DHT22;2730;51.512;7.504;2023-09-12T00:42:30;20.70;99.90
5415;DHT22;2730;51.512;7.504;2023-09-12T00:44:57;20.70;1.00
5415;DHT22;2730;51.512;7.504;2023-09-12T00:47:24;20.60;99.90
5415;DHT22;2730;51.512;7.504;2023-09-12T00:49:51;20.60;1.00
5415;DHT22;2730;51.512;7.504;2023-09-12T00:52:20;20.60;1.00
5415;DHT22;2730;51.512;7.504;2023-09-12T00:54:48;20.60;1.00
5415;DHT22;2730;51.512;7.504;2023-09-12T00:57:15;20.60;99.90
5415;DHT22;2730;51.512;7.504;2023-09-12T00:59:41;20.60;95.70
5415;DHT22;2730;51.512;7.504;2023-09-12T01:02:09;20.60;99.90
5415;DHT22;2730;51.512;7.504;2023-09-12T01:04:36;20.60;99.90
5415;DHT22;2730;51.512;7.504;2023-09-12T01:07:04;20.50;99.90
5415;DHT22;2730;51.512;7.504;2023-09-12T01:09:32;20.60;99.90
5415;DHT22;2730;51.512;7.504;2023-09-12T01:11:59;20.60;25.90
5415;DHT22;2730;51.512;7.504;2023-09-12T01:14:28;20.60;99.90
5415;DHT22;2730;51.512;7.504;2023-09-12T01:16:55;20.60;99.90
5415;DHT22;2730;51.512;7.504;2023-09-12T01:19:22;20.60;99.90
5415;DHT22;2730;51.512;7.504;2023-09-12T01:22:21;20.50;1.00
5415;DHT22;2730;51.512;7.504;2023-09-12T01:25:07;20.40;74.00
5415;DHT22;2730;51.512;7.504;2023-09-12T01:27:38;20.40;60.10
5415;DHT22;2730;51.512;7.504;2023-09-12T01:30:08;20.40;99.90
5415;DHT22;2730;51.512;7.504;2023-09-12T01:32:37;20.40;1.00
5415;DHT22;2730;51.512;7.504;2023-09-12T01:35:06;20.40;1.00
5415;DHT22;2730;51.512;7.504;2023-09-12T01:37:33;20.40;99.90
5415;DHT22;2730;51.512;7.504;2023-09-12T01:40:01;20.40;1.00
5415;DHT22;2730;51.512;7.504;2023-09-12T01:42:31;20.40;99.90
5415;DHT22;2730;51.512;7.504;2023-09-12T01:45:03;20.40;99.90
5415;DHT22;2730;51.512;7.504;2023-09-12T01:47:31;20.40;1.00
5415;DHT22;2730;51.512;7.504;2023-09-12T01:50:01;20.50;1.00
5415;DHT22;2730;51.512;7.504;2023-09-12T01:52:28;20.40;1.00
5415;DHT22;2730;51.512;7.504;2023-09-12T01:54:55;20.40;99.90
5415;DHT22;2730;51.512;7.504;2023-09-12T01:57:23;20.40;1.00
5415;DHT22;2730;51.512;7.504;2023-09-12T01:59:50;20.40;28.90
5415;DHT22;2730;51.512;7.504;2023-09-12T02:02:18;20.30;99.90
5415;DHT22;2730;51.512;7.504;2023-09-12T02:04:51;20.30;99.90
5415;DHT22;2730;51.512;7.504;2023-09-12T02:07:18;20.30;1.00
5415;DHT22;2730;51.512;7.504;2023-09-12T02:09:45;20.20;1.00
5415;DHT22;2730;51.512;7.504;2023-09-12T02:12:11;20.20;1.00
5415;DHT22;2730;51.512;7.504;2023-09-12T02:14:38;20.20;1.00
5415;DHT22;2730;51.512;7.504;2023-09-12T02:17:05;20.10;99.90
5415;DHT22;2730;51.512;7.504;2023-09-12T02:19:33;20.10;99.90
5415;DHT22;2730;51.512;7.504;2023-09-12T02:22:00;20.10;1.00
5415;DHT22;2730;51.512;7.504;2023-09-12T02:24:27;20.00;1.00
5415;DHT22;2730;51.512;7.504;2023-09-12T02:26:53;20.00;1.00
5415;DHT22;2730;51.512;7.504;2023-09-12T02:29:20;20.00;99.90
5415;DHT22;2730;51.512;7.504;2023-09-12T02:31:47;20.00;70.40
5415;DHT22;2730;51.512;7.504;2023-09-12T02:34:14;20.00;99.90
5415;DHT22;2730;51.512;7.504;2023-09-12T02:36:42;20.00;99.90
5415;DHT22;2730;51.512;7.504;2023-09-12T02:39:09;20.10;19.30
5415;DHT22;2730;51.512;7.504;2023-09-12T02:41:36;20.20;1.00
5415;DHT22;2730;51.512;7.504;2023-09-12T02:44:02;20.20;99.90
5415;DHT22;2730;51.512;7.504;2023-09-12T02:46:29;20.20;1.00
5415;DHT22;2730;51.512;7.504;2023-09-12T02:48:56;20.10;1.00
5415;DHT22;2730;51.512;7.504;2023-09-12T02:51:24;20.10;99.90
5415;DHT22;2730;51.512;7.504;2023-09-12T02:53:53;20.00;1.00
5415;DHT22;2730;51.512;7.504;2023-09-12T02:56:19;20.00;1.00
5415;DHT22;2730;51.512;7.504;2023-09-12T02:58:47;19.90;1.00
5415;DHT22;2730;51.512;7.504;2023-09-12T03:01:15;19.90;1.00
5415;DHT22;2730;51.512;7.504;2023-09-12T03:03:41;19.90;1.00
5415;DHT22;2730;51.512;7.504;2023-09-12T03:06:13;19.90;1.00
5415;DHT22;2730;51.512;7.504;2023-09-12T03:08:40;19.90;99.90
5415;DHT22;2730;51.512;7.504;2023-09-12T03:11:08;19.80;99.90
5415;DHT22;2730;51.512;7.504;2023-09-12T03:13:36;19.80;1.00
5415;DHT22;2730;51.512;7.504;2023-09-12T03:16:03;19.80;1.00
5415;DHT22;2730;51.512;7.504;2023-09-12T03:18:30;19.80;1.00
5415;DHT22;2730;51.512;7.504;2023-09-12T03:20:57;19.80;1.00
5415;DHT22;2730;51.512;7.504;2023-09-12T03:23:24;19.70;1.00
5415;DHT22;2730;51.512;7.504;2023-09-12T03:25:50;19.70;1.00
5415;DHT22;2730;51.512;7.504;2023-09-12T03:28:19;19.70;1.00
5415;DHT22;2730;51.512;7.504;2023-09-12T03:30:46;19.70;1.00
5415;DHT22;2730;51.512;7.504;2023-09-12T03:33:13;19.70;1.00
5415;DHT22;2730;51.512;7.504;2023-09-12T03:35:39;19.80;1.00
5415;DHT22;2730;51.512;7.504;2023-09-12T03:38:08;19.90;1.00
5415;DHT22;2730;51.512;7.504;2023-09-12T03:40:36;19.90;1.00
5415;DHT22;2730;51.512;7.504;2023-09-12T03:43:03;20.00;1.00
5415;DHT22;2730;51.512;7.504;2023-09-12T03:45:31;20.10;99.90
5415;DHT22;2730;51.512;7.504;2023-09-12T03:47:58;20.20;99.90
5415;DHT22;2730;51.512;7.504;2023-09-12T03:50:24;20.20;60.70
5415;DHT22;2730;51.512;7.504;2023-09-12T03:52:51;20.10;99.90
5415;DHT22;2730;51.512;7.504;2023-09-12T03:55:18;20.10;99.90
5415;DHT22;2730;51.512;7.504;2023-09-12T03:57:45;20.20;63.70
5415;DHT22;2730;51.512;7.504;2023-09-12T04:00:12;20.20;99.90
5415;DHT22;2730;51.512;7.504;2023-09-12T04:02:41;20.10;1.00
5415;DHT22;2730;51.512;7.504;2023-09-12T04:05:08;20.10;1.00
5415;DHT22;2730;51.512;7.504;2023-09-12T04:07:35;20.00;1.00
5415;DHT22;2730;51.512;7.504;2023-09-12T04:10:03;20.00;1.00
5415;DHT22;2730;51.512;7.504;2023-09-12T04:12:29;19.90;1.00
5415;DHT22;2730;51.512;7.504;2023-09-12T04:14:56;19.80;1.00
5415;DHT22;2730;51.512;7.504;2023-09-12T04:17:23;19.80;13.00
5415;DHT22;2730;51.512;7.504;2023-09-12T04:19:51;19.80;31.50
5415;DHT22;2730;51.512;7.504;2023-09-12T04:22:18;19.70;92.10
5415;DHT22;2730;51.512;7.504;2023-09-12T04:24:45;19.70;80.10
5415;DHT22;2730;51.512;7.504;2023-09-12T04:27:12;19.70;99.90
5415;DHT22;2730;51.512;7.504;2023-09-12T04:29:39;19.70;54.30
5415;DHT22;2730;51.512;7.504;2023-09-12T04:32:06;19.60;1.00
5415;DHT22;2730;51.512;7.504;2023-09-12T04:34:33;19.60;1.00
5415;DHT22;2730;51.512;7.504;2023-09-12T04:37:02;19.60;1.00
5415;DHT22;2730;51.512;7.504;2023-09-12T04:39:31;19.60;1.00
5415;DHT22;2730;51.512;7.504;2023-09-12T04:41:58;19.60;36.90
5415;DHT22;2730;51.512;7.504;2023-09-12T04:44:24;19.60;44.40
5415;DHT22;2730;51.512;7.504;2023-09-12T04:46:51;19.50;73.20
5415;DHT22;2730;51.512;7.504;2023-09-12T04:49:18;19.60;44.50
5415;DHT22;2730;51.512;7.504;2023-09-12T04:51:45;19.50;33.40
5415;DHT22;2730;51.512;7.504;2023-09-12T04:54:13;19.50;1.00
5415;DHT22;2730;51.512;7.504;2023-09-12T04:56:40;19.50;1.00
5415;DHT22;2730;51.512;7.504;2023-09-12T04:59:06;19.50;1.00
5415;DHT22;2730;51.512;7.504;2023-09-12T05:01:33;19.50;1.00
5415;DHT22;2730;51.512;7.504;2023-09-12T05:04:00;19.50;1.70
5415;DHT22;2730;51.512;7.504;2023-09-12T05:06:28;19.50;1.00
5415;DHT22;2730;51.512;7.504;2023-09-12T05:08:55;19.50;29.70
5415;DHT22;2730;51.512;7.504;2023-09-12T05:11:24;19.50;46.80
5415;DHT22;2730;51.512;7.504;2023-09-12T05:13:51;19.60;1.00
5415;DHT22;2730;51.512;7.504;2023-09-12T05:16:18;19.60;1.00
5415;DHT22;2730;51.512;7.504;2023-09-12T05:18:45;19.70;1.00
5415;DHT22;2730;51.512;7.504;2023-09-12T05:21:14;19.70;1.00
5415;DHT22;2730;51.512;7.504;2023-09-12T05:23:41;19.80;1.00
5415;DHT22;2730;51.512;7.504;2023-09-12T05:26:08;19.80;1.00
5415;DHT22;2730;51.512;7.504;2023-09-12T05:28:36;19.80;1.00
5415;DHT22;2730;51.512;7.504;2023-09-12T05:31:03;19.70;99.90
5415;DHT22;2730;51.512;7.504;2023-09-12T05:33:29;19.70;1.00
5415;DHT22;2730;51.512;7.504;2023-09-12T05:35:56;19.70;1.00
5415;DHT22;2730;51.512;7.504;2023-09-12T05:38:23;19.80;1.00
5415;DHT22;2730;51.512;7.504;2023-09-12T05:40:56;19.80;1.00
5415;DHT22;2730;51.512;7.504;2023-09-12T05:43:23;19.80;1.00
5415;DHT22;2730;51.512;7.504;2023-09-12T05:45:51;19.80;1.00
5415;DHT22;2730;51.512;7.504;2023-09-12T05:48:18;19.80;1.00
5415;DHT22;2730;51.512;7.504;2023-09-12T05:50:45;19.80;99.90
5415;DHT22;2730;51.512;7.504;2023-09-12T05:53:12;19.80;99.90
5415;DHT22;2730;51.512;7.504;2023-09-12T05:55:38;19.80;1.00
5415;DHT22;2730;51.512;7.504;2023-09-12T05:58:05;19.80;1.00
5415;DHT22;2730;51.512;7.504;2023-09-12T06:00:32;19.90;1.00
5415;DHT22;2730;51.512;7.504;2023-09-12T06:03:01;19.80;1.00
5415;DHT22;2730;51.512;7.504;2023-09-12T06:05:27;19.50;99.40
5415;DHT22;2730;51.512;7.504;2023-09-12T06:07:54;19.30;99.90
5415;DHT22;2730;51.512;7.504;2023-09-12T06:10:21;19.10;99.90
5415;DHT22;2730;51.512;7.504;2023-09-12T06:12:48;19.10;99.90
5415;DHT22;2730;51.512;7.504;2023-09-12T06:15:15;19.10;99.90
5415;DHT22;2730;51.512;7.504;2023-09-12T06:17:42;19.10;99.90
5415;DHT22;2730;51.512;7.504;2023-09-12T06:20:11;19.10;99.90
5415;DHT22;2730;51.512;7.504;2023-09-12T06:22:38;19.30;99.90
5415;DHT22;2730;51.512;7.504;2023-09-12T06:25:06;19.40;99.90
5415;DHT22;2730;51.512;7.504;2023-09-12T06:27:33;19.30;99.90
5415;DHT22;2730;51.512;7.504;2023-09-12T06:29:59;19.30;99.90
5415;DHT22;2730;51.512;7.504;2023-09-12T06:32:26;19.20;99.90
5415;DHT22;2730;51.512;7.504;2023-09-12T06:34:53;19.10;99.90
5415;DHT22;2730;51.512;7.504;2023-09-12T06:37:21;19.00;99.90
5415;DHT22;2730;51.512;7.504;2023-09-12T06:39:49;19.00;99.90
5415;DHT22;2730;51.512;7.504;2023-09-12T06:42:17;19.00;99.90
5415;DHT22;2730;51.512;7.504;2023-09-12T06:44:44;18.90;99.90
5415;DHT22;2730;51.512;7.504;2023-09-12T06:47:11;18.90;99.90
5415;DHT22;2730;51.512;7.504;2023-09-12T06:49:38;18.80;99.90
5415;DHT22;2730;51.512;7.504;2023-09-12T06:52:05;18.80;99.90
5415;DHT22;2730;51.512;7.504;2023-09-12T06:54:34;18.90;99.90
5415;DHT22;2730;51.512;7.504;2023-09-12T06:57:01;18.80;99.90
5415;DHT22;2730;51.512;7.504;2023-09-12T06:59:28;18.90;99.90
5415;DHT22;2730;51.512;7.504;2023-09-12T07:01:55;18.90;99.90
5415;DHT22;2730;51.512;7.504;2023-09-12T07:04:22;18.90;99.90
5415;DHT22;2730;51.512;7.504;2023-09-12T07:06:49;18.90;99.90
5415;DHT22;2730;51.512;7.504;2023-09-12T07:09:16;18.90;99.90
5415;DHT22;2730;51.512;7.504;2023-09-12T07:11:45;18.80;99.90
5415;DHT22;2730;51.512;7.504;2023-09-12T07:14:12;18.90;99.90
5415;DHT22;2730;51.512;7.504;2023-09-12T07:16:40;18.80;99.90
5415;DHT22;2730;51.512;7.504;2023-09-12T07:19:07;18.90;99.90
5415;DHT22;2730;51.512;7.504;2023-09-12T07:21:35;19.00;99.90
5415;DHT22;2730;51.512;7.504;2023-09-12T07:24:02;19.00;99.90
5415;DHT22;2730;51.512;7.504;2023-09-12T07:26:29;19.00;99.90
5415;DHT22;2730;51.512;7.504;2023-09-12T07:28:57;19.00;99.90
5415;DHT22;2730;51.512;7.504;2023-09-12T07:31:28;19.00;99.90
5415;DHT22;2730;51.512;7.504;2023-09-12T07:33:54;19.10;99.90
5415;DHT22;2730;51.512;7.504;2023-09-12T07:36:21;19.00;99.90
5415;DHT22;2730;51.512;7.504;2023-09-12T07:38:56;19.00;99.90
5415;DHT22;2730;51.512;7.504;2023-09-12T07:41:23;19.00;99.90
5415;DHT22;2730;51.512;7.504;2023-09-12T07:43:49;19.10;99.90
5415;DHT22;2730;51.512;7.504;2023-09-12T07:46:16;19.10;99.90
5415;DHT22;2730;51.512;7.504;2023-09-12T07:48:43;19.20;99.90
5415;DHT22;2730;51.512;7.504;2023-09-12T07:51:13;19.30;99.90
5415;DHT22;2730;51.512;7.504;2023-09-12T07:53:40;19.40;99.90
5415;DHT22;2730;51.512;7.504;2023-09-12T07:56:10;19.40;99.90
5415;DHT22;2730;51.512;7.504;2023-09-12T07:58:36;19.50;99.90
5415;DHT22;2730;51.512;7.504;2023-09-12T08:01:07;19.70;99.90
5415;DHT22;2730;51.512;7.504;2023-09-12T08:03:36;19.70;99.90
5415;DHT22;2730;51.512;7.504;2023-09-12T08:06:04;19.60;99.90
5415;DHT22;2730;51.512;7.504;2023-09-12T08:08:31;19.50;99.90
5415;DHT22;2730;51.512;7.504;2023-09-12T08:10:58;19.40;99.90
5415;DHT22;2730;51.512;7.504;2023-09-12T08:13:27;19.30;99.90
5415;DHT22;2730;51.512;7.504;2023-09-12T08:15:55;19.40;99.90
5415;DHT22;2730;51.512;7.504;2023-09-12T08:18:26;19.60;99.90
5415;DHT22;2730;51.512;7.504;2023-09-12T08:20:53;19.70;99.90
5415;DHT22;2730;51.512;7.504;2023-09-12T08:23:20;19.70;99.90
5415;DHT22;2730;51.512;7.504;2023-09-12T08:25:48;19.70;99.90
5415;DHT22;2730;51.512;7.504;2023-09-12T08:28:15;19.70;99.90
5415;DHT22;2730;51.512;7.504;2023-09-12T08:30:44;19.70;99.90
5415;DHT22;2730;51.512;7.504;2023-09-12T08:33:11;19.70;99.90
5415;DHT22;2730;51.512;7.504;2023-09-12T08:35:38;19.70;99.90
5415;DHT22;2730;51.512;7.504;2023-09-12T08:38:06;19.90;99.90
5415;DHT22;2730;51.512;7.504;2023-09-12T08:40:34;20.00;99.90
5415;DHT22;2730;51.512;7.504;2023-09-12T08:43:02;19.90;99.90
5415;DHT22;2730;51.512;7.504;2023-09-12T08:45:30;19.80;99.90
5415;DHT22;2730;51.512;7.504;2023-09-12T08:47:59;19.80;99.90
5415;DHT22;2730;51.512;7.504;2023-09-12T08:50:27;19.80;99.90
5415;DHT22;2730;51.512;7.504;2023-09-12T08:52:56;19.80;99.90
5415;DHT22;2730;51.512;7.504;2023-09-12T08:55:23;19.80;99.90
5415;DHT22;2730;51.512;7.504;2023-09-12T08:57:50;19.90;99.90
5415;DHT22;2730;51.512;7.504;2023-09-12T09:00:18;20.10;99.90
5415;DHT22;2730;51.512;7.504;2023-09-12T09:02:47;20.10;99.90
5415;DHT22;2730;51.512;7.504;2023-09-12T09:05:16;20.20;99.90
5415;DHT22;2730;51.512;7.504;2023-09-12T09:07:44;20.30;99.90
5415;DHT22;2730;51.512;7.504;2023-09-12T09:10:14;20.60;99.90
5415;DHT22;2730;51.512;7.504;2023-09-12T09:12:42;21.50;99.90
5415;DHT22;2730;51.512;7.504;2023-09-12T09:15:22;21.90;99.90
5415;DHT22;2730;51.512;7.504;2023-09-12T09:17:49;22.10;99.90
5415;DHT22;2730;51.512;7.504;2023-09-12T09:20:28;22.80;99.90
5415;DHT22;2730;51.512;7.504;2023-09-12T09:22:57;23.60;86.70
5415;DHT22;2730;51.512;7.504;2023-09-12T09:25:24;24.40;1.00
5415;DHT22;2730;51.512;7.504;2023-09-12T09:27:51;25.00;1.00
5415;DHT22;2730;51.512;7.504;2023-09-12T09:30:17;25.50;99.90
5415;DHT22;2730;51.512;7.504;2023-09-12T09:32:45;26.20;99.90
5415;DHT22;2730;51.512;7.504;2023-09-12T09:35:13;25.60;1.00
5415;DHT22;2730;51.512;7.504;2023-09-12T09:37:41;25.10;1.00
5415;DHT22;2730;51.512;7.504;2023-09-12T09:40:09;24.40;1.00
5415;DHT22;2730;51.512;7.504;2023-09-12T09:42:37;23.90;1.00
5415;DHT22;2730;51.512;7.504;2023-09-12T09:45:05;24.60;61.10
5415;DHT22;2730;51.512;7.504;2023-09-12T09:47:32;25.60;1.00
5415;DHT22;2730;51.512;7.504;2023-09-12T09:49:59;26.50;1.00
5415;DHT22;2730;51.512;7.504;2023-09-12T09:52:26;27.30;1.00
5415;DHT22;2730;51.512;7.504;2023-09-12T09:54:54;28.00;1.00
5415;DHT22;2730;51.512;7.504;2023-09-12T09:57:25;28.00;15.50
5415;DHT22;2730;51.512;7.504;2023-09-12T09:59:52;28.30;1.00
5415;DHT22;2730;51.512;7.504;2023-09-12T10:02:21;28.40;99.90
5415;DHT22;2730;51.512;7.504;2023-09-12T10:04:52;28.30;99.90
5415;DHT22;2730;51.512;7.504;2023-09-12T10:07:20;28.50;99.90
5415;DHT22;2730;51.512;7.504;2023-09-12T10:09:48;28.70;99.90
5415;DHT22;2730;51.512;7.504;2023-09-12T10:12:16;28.90;94.40
5415;DHT22;2730;51.512;7.504;2023-09-12T10:14:43;28.90;16.10
5415;DHT22;2730;51.512;7.504;2023-09-12T10:17:13;28.80;99.90
5415;DHT22;2730;51.512;7.504;2023-09-12T10:19:46;29.00;99.90
5415;DHT22;2730;51.512;7.504;2023-09-12T10:22:20;29.00;1.00
5415;DHT22;2730;51.512;7.504;2023-09-12T10:24:49;28.00;99.90
5415;DHT22;2730;51.512;7.504;2023-09-12T10:27:19;27.50;99.90
5415;DHT22;2730;51.512;7.504;2023-09-12T10:29:45;26.90;1.00
5415;DHT22;2730;51.512;7.504;2023-09-12T10:32:15;26.30;99.90
5415;DHT22;2730;51.512;7.504;2023-09-12T10:34:44;26.10;99.90
5415;DHT22;2730;51.512;7.504;2023-09-12T10:37:15;26.00;1.00
5415;DHT22;2730;51.512;7.504;2023-09-12T10:39:43;25.80;1.00
5415;DHT22;2730;51.512;7.504;2023-09-12T10:42:10;25.90;99.90
5415;DHT22;2730;51.512;7.504;2023-09-12T10:44:39;25.50;99.90
5415;DHT22;2730;51.512;7.504;2023-09-12T10:47:07;25.30;86.50
5415;DHT22;2730;51.512;7.504;2023-09-12T10:49:34;25.60;1.00
5415;DHT22;2730;51.512;7.504;2023-09-12T10:52:03;26.30;14.60
5415;DHT22;2730;51.512;7.504;2023-09-12T10:54:36;26.80;1.00
5415;DHT22;2730;51.512;7.504;2023-09-12T10:57:03;27.00;1.00
5415;DHT22;2730;51.512;7.504;2023-09-12T10:59:30;26.80;99.90
5415;DHT22;2730;51.512;7.504;2023-09-12T11:02:29;26.90;99.90
5415;DHT22;2730;51.512;7.504;2023-09-12T11:04:56;26.60;99.90
5415;DHT22;2730;51.512;7.504;2023-09-12T11:07:43;26.30;1.00
5415;DHT22;2730;51.512;7.504;2023-09-12T11:10:20;26.50;1.00
5415;DHT22;2730;51.512;7.504;2023-09-12T11:12:48;26.20;1.00
5415;DHT22;2730;51.512;7.504;2023-09-12T11:15:16;25.80;1.00
5415;DHT22;2730;51.512;7.504;2023-09-12T11:17:44;25.70;24.80
5415;DHT22;2730;51.512;7.504;2023-09-12T11:20:12;25.50;1.00
5415;DHT22;2730;51.512;7.504;2023-09-12T11:22:41;25.30;99.90
5415;DHT22;2730;51.512;7.504;2023-09-12T11:25:19;25.40;99.90
5415;DHT22;2730;51.512;7.504;2023-09-12T11:28:04;25.30;1.00
5415;DHT22;2730;51.512;7.504;2023-09-12T11:30:32;25.20;99.90
5415;DHT22;2730;51.512;7.504;2023-09-12T11:33:04;25.00;99.90
5415;DHT22;2730;51.512;7.504;2023-09-12T11:35:36;25.10;99.90
5415;DHT22;2730;51.512;7.504;2023-09-12T11:38:03;25.10;99.90
5415;DHT22;2730;51.512;7.504;2023-09-12T11:40:42;24.80;1.00
5415;DHT22;2730;51.512;7.504;2023-09-12T11:43:19;24.80;1.00
5415;DHT22;2730;51.512;7.504;2023-09-12T11:45:46;24.80;1.00
5415;DHT22;2730;51.512;7.504;2023-09-12T11:48:15;24.80;1.00
5415;DHT22;2730;51.512;7.504;2023-09-12T11:50:42;24.80;1.00
5415;DHT22;2730;51.512;7.504;2023-09-12T11:53:10;24.80;1.00
5415;DHT22;2730;51.512;7.504;2023-09-12T11:55:42;24.80;1.00
5415;DHT22;2730;51.512;7.504;2023-09-12T11:58:10;24.80;99.90
5415;DHT22;2730;51.512;7.504;2023-09-12T12:00:37;25.00;99.90
5415;DHT22;2730;51.512;7.504;2023-09-12T12:03:09;25.10;1.00
5415;DHT22;2730;51.512;7.504;2023-09-12T12:05:38;24.90;1.00
5415;DHT22;2730;51.512;7.504;2023-09-12T12:08:06;25.10;99.90
5415;DHT22;2730;51.512;7.504;2023-09-12T12:10:33;25.40;99.90
5415;DHT22;2730;51.512;7.504;2023-09-12T12:13:00;25.40;99.90
5415;DHT22;2730;51.512;7.504;2023-09-12T12:15:27;25.40;99.90
5415;DHT22;2730;51.512;7.504;2023-09-12T12:17:54;25.30;1.00
5415;DHT22;2730;51.512;7.504;2023-09-12T12:20:22;25.10;99.90
5415;DHT22;2730;51.512;7.504;2023-09-12T12:22:50;25.10;99.90
5415;DHT22;2730;51.512;7.504;2023-09-12T12:25:18;25.20;99.90
5415;DHT22;2730;51.512;7.504;2023-09-12T12:27:45;25.20;99.90
5415;DHT22;2730;51.512;7.504;2023-09-12T12:30:12;25.40;82.30
5415;DHT22;2730;51.512;7.504;2023-09-12T12:32:40;25.40;99.90
5415;DHT22;2730;51.512;7.504;2023-09-12T12:35:07;25.20;91.20
5415;DHT22;2730;51.512;7.504;2023-09-12T12:37:36;25.00;99.90
5415;DHT22;2730;51.512;7.504;2023-09-12T12:40:05;24.80;99.90
5415;DHT22;2730;51.512;7.504;2023-09-12T12:42:33;24.70;99.90
5415;DHT22;2730;51.512;7.504;2023-09-12T12:45:02;24.80;99.90
5415;DHT22;2730;51.512;7.504;2023-09-12T12:47:29;24.70;99.90
5415;DHT22;2730;51.512;7.504;2023-09-12T12:49:57;24.80;1.00
5415;DHT22;2730;51.512;7.504;2023-09-12T12:52:24;25.00;1.00
5415;DHT22;2730;51.512;7.504;2023-09-12T12:54:51;24.90;99.90
5415;DHT22;2730;51.512;7.504;2023-09-12T12:57:21;24.80;99.90
5415;DHT22;2730;51.512;7.504;2023-09-12T12:59:48;24.90;99.90
5415;DHT22;2730;51.512;7.504;2023-09-12T13:02:16;25.00;99.90
5415;DHT22;2730;51.512;7.504;2023-09-12T13:04:44;25.00;1.00
5415;DHT22;2730;51.512;7.504;2023-09-12T13:07:11;25.00;1.00
5415;DHT22;2730;51.512;7.504;2023-09-12T13:09:38;24.80;1.00
5415;DHT22;2730;51.512;7.504;2023-09-12T13:12:06;24.70;99.90
5415;DHT22;2730;51.512;7.504;2023-09-12T13:14:35;24.90;99.90
5415;DHT22;2730;51.512;7.504;2023-09-12T13:17:02;24.80;99.90
5415;DHT22;2730;51.512;7.504;2023-09-12T13:19:28;24.80;99.90
5415;DHT22;2730;51.512;7.504;2023-09-12T13:21:55;24.80;99.90
5415;DHT22;2730;51.512;7.504;2023-09-12T13:24:22;24.80;99.90
5415;DHT22;2730;51.512;7.504;2023-09-12T13:26:49;24.90;99.90
5415;DHT22;2730;51.512;7.504;2023-09-12T13:29:16;25.00;99.90
5415;DHT22;2730;51.512;7.504;2023-09-12T13:31:44;25.10;99.90
5415;DHT22;2730;51.512;7.504;2023-09-12T13:34:11;25.10;1.00
5415;DHT22;2730;51.512;7.504;2023-09-12T13:36:38;25.00;1.00
5415;DHT22;2730;51.512;7.504;2023-09-12T13:39:05;25.20;94.10
5415;DHT22;2730;51.512;7.504;2023-09-12T13:41:32;25.10;1.00
5415;DHT22;2730;51.512;7.504;2023-09-12T13:43:58;25.00;99.90
5415;DHT22;2730;51.512;7.504;2023-09-12T13:46:25;25.00;87.30
5415;DHT22;2730;51.512;7.504;2023-09-12T13:48:53;25.20;99.80
5415;DHT22;2730;51.512;7.504;2023-09-12T13:51:22;25.30;49.40
5415;DHT22;2730;51.512;7.504;2023-09-12T13:53:49;25.40;7.60
5415;DHT22;2730;51.512;7.504;2023-09-12T13:56:16;25.50;87.90
5415;DHT22;2730;51.512;7.504;2023-09-12T13:58:42;25.50;1.00
5415;DHT22;2730;51.512;7.504;2023-09-12T14:01:09;25.30;99.90
5415;DHT22;2730;51.512;7.504;2023-09-12T14:03:36;25.20;99.90
5415;DHT22;2730;51.512;7.504;2023-09-12T14:06:05;25.20;99.90
5415;DHT22;2730;51.512;7.504;2023-09-12T14:08:31;25.20;99.90
5415;DHT22;2730;51.512;7.504;2023-09-12T14:10:58;25.10;99.90
5415;DHT22;2730;51.512;7.504;2023-09-12T14:13:25;25.00;99.90
5415;DHT22;2730;51.512;7.504;2023-09-12T14:15:52;25.00;99.90
5415;DHT22;2730;51.512;7.504;2023-09-12T14:18:19;24.90;99.90
5415;DHT22;2730;51.512;7.504;2023-09-12T14:20:46;24.80;99.90
5415;DHT22;2730;51.512;7.504;2023-09-12T14:23:14;24.80;1.00
5415;DHT22;2730;51.512;7.504;2023-09-12T14:25:41;24.80;1.00
5415;DHT22;2730;51.512;7.504;2023-09-12T14:28:08;24.80;1.00
5415;DHT22;2730;51.512;7.504;2023-09-12T14:30:36;24.90;99.90
5415;DHT22;2730;51.512;7.504;2023-09-12T14:33:04;25.00;99.90
5415;DHT22;2730;51.512;7.504;2023-09-12T14:35:31;24.90;99.90
5415;DHT22;2730;51.512;7.504;2023-09-12T14:37:57;24.90;99.90
5415;DHT22;2730;51.512;7.504;2023-09-12T14:40:27;25.10;99.90
5415;DHT22;2730;51.512;7.504;2023-09-12T14:42:54;25.20;99.90
5415;DHT22;2730;51.512;7.504;2023-09-12T14:45:21;25.40;99.90
5415;DHT22;2730;51.512;7.504;2023-09-12T14:47:49;25.40;99.90
5415;DHT22;2730;51.512;7.504;2023-09-12T14:50:16;25.50;28.10
5415;DHT22;2730;51.512;7.504;2023-09-12T14:52:42;25.40;1.00
5415;DHT22;2730;51.512;7.504;2023-09-12T14:55:09;25.40;14.40
5415;DHT22;2730;51.512;7.504;2023-09-12T14:57:37;25.60;50.10
5415;DHT22;2730;51.512;7.504;2023-09-12T15:00:06;25.40;1.20
5415;DHT22;2730;51.512;7.504;2023-09-12T15:02:33;25.30;99.90
5415;DHT22;2730;51.512;7.504;2023-09-12T15:05:01;25.30;99.90
5415;DHT22;2730;51.512;7.504;2023-09-12T15:07:28;25.30;99.90
5415;DHT22;2730;51.512;7.504;2023-09-12T15:09:56;25.40;99.90
5415;DHT22;2730;51.512;7.504;2023-09-12T15:12:22;25.30;99.90
5415;DHT22;2730;51.512;7.504;2023-09-12T15:14:51;25.10;99.90
5415;DHT22;2730;51.512;7.504;2023-09-12T15:17:18;25.00;99.90
5415;DHT22;2730;51.512;7.504;2023-09-12T15:19:45;24.90;1.00
5415;DHT22;2730;51.512;7.504;2023-09-12T15:22:12;24.90;99.90
5415;DHT22;2730;51.512;7.504;2023-09-12T15:24:40;24.80;1.00
5415;DHT22;2730;51.512;7.504;2023-09-12T15:27:07;24.70;1.00
5415;DHT22;2730;51.512;7.504;2023-09-12T15:29:33;24.60;1.00
5415;DHT22;2730;51.512;7.504;2023-09-12T15:32:02;24.60;1.00
5415;DHT22;2730;51.512;7.504;2023-09-12T15:34:29;24.80;1.00
5415;DHT22;2730;51.512;7.504;2023-09-12T15:37:07;24.80;1.00
5415;DHT22;2730;51.512;7.504;2023-09-12T15:39:34;24.80;1.00
5415;DHT22;2730;51.512;7.504;2023-09-12T15:42:00;24.80;1.00
5415;DHT22;2730;51.512;7.504;2023-09-12T15:44:27;24.90;1.00
5415;DHT22;2730;51.512;7.504;2023-09-12T15:46:54;24.70;1.00
5415;DHT22;2730;51.512;7.504;2023-09-12T15:49:24;24.60;1.00
5415;DHT22;2730;51.512;7.504;2023-09-12T15:51:51;24.70;1.00
5415;DHT22;2730;51.512;7.504;2023-09-12T15:54:18;24.70;1.00
5415;DHT22;2730;51.512;7.504;2023-09-12T15:56:44;24.80;1.00
5415;DHT22;2730;51.512;7.504;2023-09-12T15:59:11;24.70;30.50
5415;DHT22;2730;51.512;7.504;2023-09-12T16:01:38;24.70;91.30
5415;DHT22;2730;51.512;7.504;2023-09-12T16:04:05;24.60;99.90
5415;DHT22;2730;51.512;7.504;2023-09-12T16:06:33;24.40;1.00
5415;DHT22;2730;51.512;7.504;2023-09-12T16:09:00;24.30;1.00
5415;DHT22;2730;51.512;7.504;2023-09-12T16:11:28;24.20;1.00